Ocoee 2 Observed Data For Previous 48 Hours

Note: Discharge information is a combination of river flows at the Ocoee No. 2 dam and the volume of water diverted by the Ocoee Flume, which bypasses the middle section of the river where recreational rafting is held.

Caption
Day and Hour Reservoir Elevation (behind dam)* Tailwater Elevation (below dam)* Average Hourly Discharge*
1/15/2018 2 AM EST 840.87 171
1/15/2018 3 AM EST 840.71 115
1/15/2018 4 AM EST 840.62 88
1/15/2018 5 AM EST 842.35 1,231
1/15/2018 6 AM EST 842.32 1,208
1/15/2018 7 AM EST 842.34 1,230
1/15/2018 8 AM EST 842.35 1,233
1/15/2018 9 AM EST 842.34 1,222
1/15/2018 10 AM EST 842.33 1,231
1/15/2018 11 AM EST 841.65 630
1/15/2018 12 PM EST 841.14 301
1/15/2018 1 PM EST 840.87 172
1/15/2018 2 PM EST 840.71 116
1/15/2018 3 PM EST 840.61 88
1/15/2018 4 PM EST 840.55 81
1/15/2018 5 PM EST 840.52 79
1/15/2018 6 PM EST 842.31 1,212
1/15/2018 7 PM EST 842.32 1,219
1/15/2018 8 PM EST 842.33 1,225
1/15/2018 9 PM EST 842.33 1,219
1/15/2018 10 PM EST 842.33 1,233
1/15/2018 11 PM EST 842.34 1,234
1/16/2018 12 AM EST 842.32 1,225
1/16/2018 1 AM EST 841.65 630
1/16/2018 2 AM EST 841.14 301
1/16/2018 3 AM EST 840.86 175
1/16/2018 4 AM EST 840.71 116
1/16/2018 5 AM EST 840.61 88
1/16/2018 6 AM EST 840.55 81
1/16/2018 7 AM EST 842.32 1,225
1/16/2018 8 AM EST 842.31 1,219
1/16/2018 9 AM EST 842.33 1,225
1/16/2018 10 AM EST 842.33 1,225
1/16/2018 11 AM EST 842.32 1,219
1/16/2018 12 PM EST 842.33 1,219
1/16/2018 1 PM EST 842.34 1,233
1/16/2018 2 PM EST 842.33 1,233
1/16/2018 3 PM EST 841.65 625
1/16/2018 4 PM EST 841.14 301
1/16/2018 5 PM EST 840.87 175
1/16/2018 6 PM EST 840.71 118
1/16/2018 7 PM EST 840.61 88
1/16/2018 8 PM EST 842.58 1,480
1/16/2018 9 PM EST 842.63 1,537
1/16/2018 10 PM EST 842.63 1,544
1/16/2018 11 PM EST 842.63 1,544
1/17/2018 12 AM EST 842.63 1,544
1/17/2018 1 AM EST 842.39 1,294
1/17/2018 2 AM EST 842.34 1,225
1/17/2018 3 AM EST 842.34 1,233
1/17/2018 4 AM EST 842.34 1,240
1/17/2018 5 AM EST 842.61 1,512
1/17/2018 6 AM EST 842.63 1,537
1/17/2018 7 AM EST 842.62 1,544
1/17/2018 8 AM EST 842.62 1,535
1/17/2018 9 AM EST 842.62 1,537
1/17/2018 10 AM EST 842.61 1,527
1/17/2018 11 AM EST 842.61 1,527
1/17/2018 12 PM EST 842.62 1,537
1/17/2018 1 PM EST 842.62 1,544
1/17/2018 2 PM EST 842.62 1,537
1/17/2018 3 PM EST 842.63 1,544
1/17/2018 4 PM EST 842.40 1,286
1/17/2018 5 PM EST 842.34 1,224
1/17/2018 6 PM EST 842.35 1,233
1/17/2018 7 PM EST 842.60 1,502
1/17/2018 8 PM EST 842.62 1,537
1/17/2018 9 PM EST 842.63 1,535
1/17/2018 10 PM EST 842.61 1,529

Elevations are in feet above sea level. Discharges are in cubic feet per second and are reported at the end of the hour.